Time;durP1;ratioP1;P1;durP2;ratioP2;P2;SDS_P1;SDS_P2;PMS_P1;PMS_P2;Temp;Humidity;BMP_temperature;BMP_pressure;BME280_temperature;BME280_humidity;BME280_pressure;Samples;Min_cycle;Max_cycle;Signal;HPM_P1;HPM_P2
2024/03/10 00:01:45;;;;;;;0.00;0.00;;;22.40;45.80;;;;;;5009755;28;20232;-59
2024/03/10 00:04:16;;;;;;;0.00;0.00;;;22.40;45.80;;;;;;4999472;28;20203;-53
2024/03/10 00:06:46;;;;;;;0.00;0.00;;;22.40;45.70;;;;;;5008165;28;20201;-55
2024/03/10 00:09:17;;;;;;;0.10;0.10;;;22.50;45.70;;;;;;5008136;28;20213;-54
2024/03/10 00:11:48;;;;;;;0.10;0.10;;;22.50;46.40;;;;;;5008736;28;20231;-51
2024/03/10 00:14:20;;;;;;;0.10;0.10;;;22.50;45.70;;;;;;5008927;28;20964;-56
2024/03/10 00:16:51;;;;;;;0.00;0.00;;;22.60;45.70;;;;;;5007584;28;20212;-54
2024/03/10 00:19:22;;;;;;;0.00;0.00;;;22.60;45.80;;;;;;5008629;28;20201;-57
2024/03/10 00:21:54;;;;;;;0.00;0.00;;;22.70;45.90;;;;;;5007257;28;20224;-54
2024/03/10 00:24:24;;;;;;;0.00;0.00;;;22.70;45.90;;;;;;5007200;28;20212;-58
2024/03/10 00:26:55;;;;;;;0.08;0.08;;;22.70;46.00;;;;;;5006956;28;20255;-53
2024/03/10 00:29:27;;;;;;;0.00;0.00;;;22.80;46.10;;;;;;5007437;28;20255;-50
2024/03/10 00:31:58;;;;;;;0.08;0.08;;;22.80;46.20;;;;;;5008057;28;20291;-53
2024/03/10 00:34:29;;;;;;;0.00;0.00;;;22.80;46.20;;;;;;5008415;28;20203;-56
2024/03/10 00:36:59;;;;;;;0.00;0.00;;;22.90;46.30;;;;;;5008205;28;20211;-49
2024/03/10 00:39:30;;;;;;;0.00;0.00;;;22.90;46.30;;;;;;5007819;28;20664;-50
2024/03/10 00:42:00;;;;;;;0.00;0.00;;;22.90;46.40;;;;;;5007819;28;20220;-49
2024/03/10 00:44:33;;;;;;;0.03;0.03;;;23.00;47.00;;;;;;5008648;28;20328;-68
2024/03/10 00:47:04;;;;;;;0.00;0.00;;;23.00;46.90;;;;;;5007872;28;20196;-65
2024/03/10 00:49:34;;;;;;;0.08;0.08;;;23.00;46.90;;;;;;5006860;28;20208;-65
2024/03/10 00:52:09;;;;;;;0.00;0.00;;;23.10;46.90;;;;;;5006120;28;20719;-67
2024/03/10 00:54:39;;;;;;;0.00;0.00;;;23.10;47.40;;;;;;5007104;28;20218;-70
2024/03/10 00:57:10;;;;;;;0.00;0.00;;;23.10;47.10;;;;;;5006461;28;20201;-64
2024/03/10 00:59:43;;;;;;;0.00;0.00;;;23.10;47.40;;;;;;5007227;28;20236;-66
2024/03/10 01:02:14;;;;;;;0.00;0.00;;;23.10;47.50;;;;;;5007129;28;20723;-68
2024/03/10 01:04:45;;;;;;;0.00;0.00;;;23.10;47.40;;;;;;5007553;28;20205;-66
2024/03/10 01:07:15;;;;;;;0.00;0.00;;;23.10;46.60;;;;;;5006907;28;20283;-67
2024/03/10 01:09:46;;;;;;;0.00;0.00;;;23.10;46.40;;;;;;5008260;28;20216;-50
2024/03/10 01:12:17;;;;;;;0.00;0.00;;;23.10;46.50;;;;;;5007815;28;20286;-51
2024/03/10 01:14:49;;;;;;;0.10;0.10;;;23.10;46.50;;;;;;5006816;28;20220;-49
2024/03/10 01:17:20;;;;;;;0.00;0.00;;;23.10;46.50;;;;;;5007918;28;20205;-52
2024/03/10 01:19:52;;;;;;;0.00;0.00;;;23.20;46.50;;;;;;4987991;28;20212;-52
2024/03/10 01:22:23;;;;;;;0.08;0.08;;;23.30;46.40;;;;;;4987583;28;20229;-56
2024/03/10 01:24:54;;;;;;;0.00;0.00;;;23.30;46.20;;;;;;4996081;28;20603;-52
2024/03/10 01:27:24;;;;;;;0.10;0.10;;;23.30;46.10;;;;;;5007796;28;20201;-49
2024/03/10 01:29:57;;;;;;;0.00;0.00;;;23.30;46.10;;;;;;5007487;28;20201;-53
2024/03/10 01:32:27;;;;;;;0.10;0.10;;;23.40;46.10;;;;;;5006716;28;20294;-54
2024/03/10 01:34:58;;;;;;;0.00;0.00;;;23.40;46.00;;;;;;5006416;28;20204;-52
2024/03/10 01:37:28;;;;;;;0.00;0.00;;;23.50;46.00;;;;;;5006152;28;20240;-54
2024/03/10 01:39:59;;;;;;;0.00;0.00;;;23.50;46.10;;;;;;5008287;28;20196;-54
2024/03/10 01:42:30;;;;;;;0.00;0.00;;;23.50;45.90;;;;;;5010481;28;20223;-49
2024/03/10 01:45:04;;;;;;;0.03;0.03;;;23.60;45.90;;;;;;5010002;28;20727;-55
2024/03/10 01:47:35;;;;;;;0.00;0.00;;;23.60;45.90;;;;;;5010052;28;20621;-52
2024/03/10 01:50:08;;;;;;;0.10;0.10;;;23.60;45.90;;;;;;5009669;28;20312;-55
2024/03/10 01:52:39;;;;;;;0.00;0.00;;;23.70;46.00;;;;;;5010015;28;20255;-55
2024/03/10 01:55:10;;;;;;;0.00;0.00;;;23.70;46.00;;;;;;5009881;28;20196;-55
2024/03/10 01:57:41;;;;;;;0.00;0.00;;;23.70;45.90;;;;;;4993447;28;20463;-55
2024/03/10 02:00:15;;;;;;;0.00;0.00;;;23.80;45.90;;;;;;5010529;28;20196;-58
2024/03/10 02:02:45;;;;;;;0.00;0.00;;;23.80;45.80;;;;;;5010660;28;20209;-57
2024/03/10 02:05:17;;;;;;;0.00;0.00;;;23.80;45.60;;;;;;5009535;28;20232;-50
2024/03/10 02:07:48;;;;;;;0.10;0.10;;;23.90;45.60;;;;;;5010899;28;20408;-52
2024/03/10 02:10:19;;;;;;;0.00;0.00;;;24.00;45.60;;;;;;5010283;28;20565;-49
2024/03/10 02:12:49;;;;;;;0.00;0.00;;;24.00;45.40;;;;;;5010158;28;20731;-53
2024/03/10 02:15:24;;;;;;;0.00;0.00;;;24.00;45.20;;;;;;5010229;28;20695;-50
2024/03/10 02:17:56;;;;;;;0.00;0.00;;;24.10;45.10;;;;;;5010159;28;20196;-54
2024/03/10 02:20:27;;;;;;;0.00;0.00;;;24.10;45.70;;;;;;5010026;28;20231;-55
2024/03/10 02:22:57;;;;;;;0.00;0.00;;;24.10;45.00;;;;;;5010473;28;20201;-49
2024/03/10 02:25:35;;;;;;;0.00;0.00;;;24.20;45.10;;;;;;5010275;28;20467;-51
2024/03/10 02:28:20;;;;;;;0.00;0.00;;;24.20;45.00;;;;;;5009664;28;20208;-56
2024/03/10 02:30:57;;;;;;;0.00;0.00;;;24.20;44.90;;;;;;5009944;28;20225;-57
2024/03/10 02:47:23;;;;;;;0.00;0.00;;;24.50;44.90;;;;;;5006944;28;20623;-49
2024/03/10 02:49:54;;;;;;;0.00;0.00;;;24.50;44.90;;;;;;5008405;28;20533;-54
2024/03/10 02:52:24;;;;;;;0.00;0.00;;;24.50;44.90;;;;;;5008873;28;20237;-54
2024/03/10 02:54:56;;;;;;;0.00;0.00;;;24.60;44.90;;;;;;5010232;28;20209;-54
2024/03/10 02:57:26;;;;;;;0.05;0.05;;;24.60;44.80;;;;;;5009515;28;20687;-53
2024/03/10 02:59:59;;;;;;;0.00;0.00;;;24.70;44.80;;;;;;5009292;28;20211;-53
2024/03/10 03:02:29;;;;;;;0.00;0.00;;;24.70;44.70;;;;;;5009917;28;20217;-57
2024/03/10 03:05:00;;;;;;;0.00;0.00;;;24.80;44.70;;;;;;5009298;28;20212;-55
2024/03/10 03:07:31;;;;;;;0.08;0.08;;;24.80;44.60;;;;;;5009189;28;20202;-54
2024/03/10 03:10:01;;;;;;;0.00;0.00;;;24.90;44.60;;;;;;5009488;28;20201;-49
2024/03/10 03:12:32;;;;;;;0.00;0.00;;;24.90;44.60;;;;;;5009121;28;20653;-49
2024/03/10 03:15:04;;;;;;;0.00;0.00;;;25.00;44.70;;;;;;5009117;28;20286;-50
2024/03/10 03:17:35;;;;;;;0.10;0.10;;;25.00;44.70;;;;;;5008783;28;20197;-55
2024/03/10 03:20:13;;;;;;;0.00;0.00;;;25.00;44.60;;;;;;5008860;28;20206;-50
2024/03/10 03:22:43;;;;;;;0.03;0.03;;;25.10;44.70;;;;;;5009093;28;20204;-55
2024/03/10 03:25:14;;;;;;;0.00;0.00;;;25.10;44.70;;;;;;5008924;28;20209;-54
2024/03/10 03:27:50;;;;;;;0.00;0.00;;;25.10;44.70;;;;;;5009090;28;20208;-54
2024/03/10 03:30:22;;;;;;;0.00;0.00;;;25.20;44.60;;;;;;5009091;28;20568;-51
2024/03/10 03:32:54;;;;;;;0.00;0.00;;;25.20;44.60;;;;;;5008715;28;20224;-54
2024/03/10 03:35:25;;;;;;;0.00;0.00;;;25.30;44.60;;;;;;5008857;28;20205;-49
2024/03/10 03:37:55;;;;;;;0.00;0.00;;;25.30;44.60;;;;;;5008379;28;20205;-54
2024/03/10 03:40:26;;;;;;;0.00;0.00;;;25.30;44.60;;;;;;5008992;28;20205;-51
2024/03/10 03:42:57;;;;;;;0.00;0.00;;;25.40;44.70;;;;;;5008094;28;20263;-56
2024/03/10 03:45:29;;;;;;;0.00;0.00;;;25.40;44.60;;;;;;5008602;28;20204;-50
2024/03/10 03:48:00;;;;;;;0.00;0.00;;;25.40;44.60;;;;;;5008521;28;20197;-50
2024/03/10 03:50:30;;;;;;;0.00;0.00;;;25.50;44.60;;;;;;5008447;28;20221;-50
2024/03/10 03:53:01;;;;;;;0.00;0.00;;;25.50;44.60;;;;;;5007882;28;20232;-51
2024/03/10 03:55:32;;;;;;;0.00;0.00;;;25.60;44.50;;;;;;5009028;28;20215;-53
2024/03/10 03:58:03;;;;;;;0.00;0.00;;;25.60;44.50;;;;;;4998382;28;20255;-53
2024/03/10 04:00:36;;;;;;;0.00;0.00;;;25.60;44.50;;;;;;5008742;28;20221;-53
2024/03/10 04:03:09;;;;;;;0.00;0.00;;;25.70;44.60;;;;;;5007830;28;20236;-52
2024/03/10 04:05:41;;;;;;;0.00;0.00;;;25.70;44.50;;;;;;5008302;28;20201;-52
2024/03/10 04:08:12;;;;;;;0.00;0.00;;;25.70;44.40;;;;;;5007653;28;20212;-52
2024/03/10 04:13:26;;;;;;;0.00;0.00;;;25.80;44.40;;;;;;5024615;28;20232;-49
2024/03/10 04:15:59;;;;;;;0.00;0.00;;;25.80;44.40;;;;;;5027986;28;20208;-47
2024/03/10 04:18:30;;;;;;;0.05;0.05;;;25.80;44.40;;;;;;5037892;28;20200;-46
2024/03/10 04:21:00;;;;;;;0.00;0.00;;;25.90;44.40;;;;;;5047647;28;20215;-44
2024/03/10 04:23:32;;;;;;;0.10;0.10;;;25.90;44.40;;;;;;5047964;28;20269;-43
2024/03/10 04:26:02;;;;;;;0.08;0.08;;;25.90;44.30;;;;;;5030320;28;20200;-43
2024/03/10 04:28:33;;;;;;;0.00;0.00;;;25.90;44.30;;;;;;5027464;28;20235;-44
2024/03/10 04:31:06;;;;;;;0.00;0.00;;;25.90;44.30;;;;;;5028413;28;20252;-44
2024/03/10 04:33:37;;;;;;;0.00;0.00;;;26.00;44.30;;;;;;5027364;28;20358;-43
2024/03/10 04:36:08;;;;;;;0.00;0.00;;;26.00;44.20;;;;;;5027163;28;20227;-43
2024/03/10 04:38:39;;;;;;;0.00;0.00;;;26.10;44.20;;;;;;5030034;28;20196;-44
2024/03/10 04:41:09;;;;;;;0.00;0.00;;;26.10;44.10;;;;;;5030835;28;20679;-45
2024/03/10 04:43:40;;;;;;;0.00;0.00;;;26.20;44.00;;;;;;5030368;28;20254;-43
2024/03/10 04:46:13;;;;;;;0.00;0.00;;;26.20;44.00;;;;;;5030911;28;20200;-45
2024/03/10 04:48:42;;;;;;;0.10;0.10;;;26.20;43.90;;;;;;5030808;28;20211;-43
2024/03/10 04:51:13;;;;;;;0.00;0.00;;;26.20;43.80;;;;;;5030026;28;20223;-43
2024/03/10 04:53:44;;;;;;;0.00;0.00;;;26.20;43.70;;;;;;5030531;28;20283;-43
2024/03/10 04:56:15;;;;;;;0.00;0.00;;;26.30;43.80;;;;;;5030536;28;20201;-45
2024/03/10 04:58:45;;;;;;;0.00;0.00;;;26.30;43.70;;;;;;5030805;28;20227;-43
2024/03/10 05:01:22;;;;;;;0.00;0.00;;;26.30;43.60;;;;;;5031333;28;20247;-46
2024/03/10 05:03:53;;;;;;;0.03;0.03;;;26.30;43.50;;;;;;5031519;28;20192;-44
2024/03/10 05:06:23;;;;;;;0.00;0.00;;;26.30;43.50;;;;;;5031032;28;20207;-44
2024/03/10 05:08:54;;;;;;;0.00;0.00;;;26.30;43.50;;;;;;5030897;28;20196;-49
2024/03/10 05:11:24;;;;;;;0.00;0.00;;;26.30;43.30;;;;;;5030705;28;20223;-45
2024/03/10 05:13:55;;;;;;;0.00;0.00;;;26.30;43.20;;;;;;5031159;28;20200;-44
2024/03/10 05:16:27;;;;;;;0.00;0.00;;;26.30;43.00;;;;;;5034870;28;20232;-45
2024/03/10 05:18:58;;;;;;;0.00;0.00;;;26.30;42.70;;;;;;5034661;28;20227;-44
2024/03/10 05:21:28;;;;;;;0.00;0.00;;;26.40;42.70;;;;;;5034720;28;20684;-44
2024/03/10 05:23:59;;;;;;;0.00;0.00;;;26.40;42.60;;;;;;5034435;28;20200;-46
2024/03/10 05:26:29;;;;;;;0.00;0.00;;;26.40;42.50;;;;;;5033678;28;20231;-44
2024/03/10 05:29:00;;;;;;;0.00;0.00;;;26.40;42.40;;;;;;5033622;28;20250;-44
2024/03/10 05:31:35;;;;;;;0.05;0.05;;;26.40;42.30;;;;;;5033911;28;20216;-44
2024/03/10 05:34:05;;;;;;;0.00;0.00;;;26.40;42.30;;;;;;5034197;28;20257;-44
2024/03/10 05:36:36;;;;;;;0.00;0.00;;;26.40;42.30;;;;;;5033807;28;20192;-44
2024/03/10 05:39:08;;;;;;;0.00;0.00;;;26.40;42.30;;;;;;5034224;28;20199;-44
2024/03/10 05:41:38;;;;;;;0.00;0.00;;;26.40;42.30;;;;;;5033952;28;20216;-46
2024/03/10 05:44:09;;;;;;;0.00;0.00;;;26.40;42.30;;;;;;5033674;28;20200;-45
2024/03/10 05:46:41;;;;;;;0.00;0.00;;;26.40;42.30;;;;;;5033190;28;20706;-46
2024/03/10 05:49:12;;;;;;;0.00;0.00;;;26.40;42.40;;;;;;5014407;28;20243;-44
2024/03/10 05:51:42;;;;;;;0.00;0.00;;;26.40;42.40;;;;;;5014072;28;20216;-45
2024/03/10 05:54:13;;;;;;;0.00;0.00;;;26.40;42.40;;;;;;5016976;28;20216;-47
2024/03/10 05:56:44;;;;;;;0.00;0.00;;;26.40;42.40;;;;;;5033649;28;20202;-47
2024/03/10 05:59:15;;;;;;;0.00;0.00;;;26.40;42.40;;;;;;5033695;28;20192;-44
2024/03/10 06:01:47;;;;;;;0.00;0.00;;;26.40;42.30;;;;;;5034127;28;20220;-45
2024/03/10 06:04:18;;;;;;;0.00;0.00;;;26.40;42.30;;;;;;5033640;28;20231;-45
2024/03/10 06:06:49;;;;;;;0.00;0.00;;;26.40;42.30;;;;;;5033443;28;20200;-48
2024/03/10 06:09:19;;;;;;;0.00;0.00;;;26.40;42.20;;;;;;5033538;28;20259;-45
2024/03/10 06:11:50;;;;;;;0.00;0.00;;;26.40;42.10;;;;;;5044792;22;20287;-50
2024/03/10 06:14:21;;;;;;;0.00;0.00;;;26.40;42.00;;;;;;5033586;28;20189;-50
2024/03/10 06:16:53;;;;;;;0.00;0.00;;;26.40;41.90;;;;;;5033728;28;20200;-49
2024/03/10 06:27:42;;;;;;;0.00;0.00;;;26.40;41.80;;;;;;5032711;28;20234;-50
2024/03/10 06:30:14;;;;;;;0.00;0.00;;;26.40;41.80;;;;;;5033145;28;20196;-50
2024/03/10 06:32:47;;;;;;;0.00;0.00;;;26.40;41.70;;;;;;5033255;28;20220;-47
2024/03/10 06:35:17;;;;;;;0.00;0.00;;;26.40;41.30;;;;;;5032994;28;20200;-52
2024/03/10 06:37:48;;;;;;;0.00;0.00;;;26.30;41.20;;;;;;5032985;28;20235;-49
2024/03/10 06:40:21;;;;;;;0.00;0.00;;;26.30;41.10;;;;;;5032395;28;20196;-48
2024/03/10 06:42:52;;;;;;;0.00;0.00;;;26.30;41.10;;;;;;5031455;28;20644;-50
2024/03/10 06:45:22;;;;;;;0.10;0.10;;;26.30;40.80;;;;;;5031887;28;20539;-48
2024/03/10 06:47:55;;;;;;;0.00;0.00;;;26.20;40.80;;;;;;5032070;28;20234;-48
2024/03/10 06:50:27;;;;;;;0.00;0.00;;;26.20;40.70;;;;;;5031326;28;20686;-50
2024/03/10 06:52:57;;;;;;;0.00;0.00;;;26.20;40.70;;;;;;5032046;28;20235;-48
2024/03/10 06:55:28;;;;;;;0.00;0.00;;;26.20;40.80;;;;;;5032110;28;20273;-50
2024/03/10 06:57:59;;;;;;;0.00;0.00;;;26.20;40.90;;;;;;5032507;28;20204;-47
2024/03/10 07:00:29;;;;;;;0.00;0.00;;;26.20;41.00;;;;;;5032160;28;20238;-47
2024/03/10 07:03:02;;;;;;;0.00;0.00;;;26.20;41.00;;;;;;5032446;28;20266;-47
2024/03/10 07:05:33;;;;;;;0.00;0.00;;;26.20;41.00;;;;;;5032143;28;20643;-53
2024/03/10 07:08:03;;;;;;;0.00;0.00;;;26.20;41.10;;;;;;5032206;28;20203;-49
2024/03/10 07:10:35;;;;;;;0.00;0.00;;;26.10;41.00;;;;;;5032383;28;20216;-52
2024/03/10 07:13:06;;;;;;;0.00;0.00;;;26.10;41.00;;;;;;5031893;28;20234;-47
2024/03/10 07:15:36;;;;;;;0.00;0.00;;;26.10;40.90;;;;;;5031821;28;20276;-48
2024/03/10 07:18:10;;;;;;;0.00;0.00;;;26.10;40.80;;;;;;5031788;28;20196;-50
2024/03/10 07:20:40;;;;;;;0.00;0.00;;;26.10;40.70;;;;;;5031721;28;20216;-49
2024/03/10 07:23:11;;;;;;;0.00;0.00;;;26.10;40.60;;;;;;5031917;28;20286;-49
2024/03/10 07:25:42;;;;;;;0.00;0.00;;;26.00;40.50;;;;;;5032265;28;20204;-48
2024/03/10 07:28:12;;;;;;;0.05;0.05;;;26.10;40.40;;;;;;5033248;28;20619;-48
2024/03/10 07:30:43;;;;;;;0.00;0.00;;;26.10;40.20;;;;;;5034511;28;20219;-48
2024/03/10 07:33:16;;;;;;;0.00;0.00;;;26.00;40.10;;;;;;5031641;28;20227;-47
2024/03/10 07:35:46;;;;;;;0.00;0.00;;;26.00;40.00;;;;;;5031562;28;20196;-46
2024/03/10 07:38:17;;;;;;;0.00;0.00;;;26.00;39.90;;;;;;5031396;28;20200;-49
2024/03/10 07:40:48;;;;;;;0.00;0.00;;;25.90;39.80;;;;;;5031560;28;20216;-48
2024/03/10 07:43:18;;;;;;;0.00;0.00;;;25.90;39.80;;;;;;5031804;28;20402;-50
2024/03/10 07:45:49;;;;;;;0.00;0.00;;;25.90;39.80;;;;;;5031330;28;20228;-47
2024/03/10 07:48:21;;;;;;;0.00;0.00;;;25.90;39.90;;;;;;5025079;28;20286;-47
2024/03/10 07:50:52;;;;;;;0.00;0.00;;;25.90;39.90;;;;;;5020138;28;20224;-47
2024/03/10 07:53:23;;;;;;;0.00;0.00;;;25.90;40.00;;;;;;5028025;28;20231;-46
2024/03/10 07:55:54;;;;;;;0.00;0.00;;;25.80;39.90;;;;;;5024200;28;20261;-49
2024/03/10 07:58:25;;;;;;;0.00;0.00;;;25.90;40.10;;;;;;5027912;28;20200;-46
2024/03/10 08:00:56;;;;;;;0.00;0.00;;;25.80;40.60;;;;;;5027888;28;20707;-51
2024/03/10 08:03:29;;;;;;;0.00;0.00;;;25.80;39.90;;;;;;5028026;28;20296;-47
2024/03/10 08:05:59;;;;;;;0.00;0.00;;;25.80;40.00;;;;;;5028155;28;20291;-48
2024/03/10 08:08:30;;;;;;;0.00;0.00;;;25.80;40.10;;;;;;5028473;28;20869;-46
2024/03/10 08:11:06;;;;;;;0.00;0.00;;;25.80;40.00;;;;;;5028258;28;20220;-46
2024/03/10 08:13:36;;;;;;;0.00;0.00;;;25.80;40.00;;;;;;5027813;28;20228;-48
2024/03/10 08:16:07;;;;;;;0.00;0.00;;;25.70;39.90;;;;;;5027651;28;20215;-46
2024/03/10 08:18:40;;;;;;;0.00;0.00;;;25.70;39.70;;;;;;5027775;28;20200;-47
2024/03/10 08:21:10;;;;;;;0.00;0.00;;;25.70;39.50;;;;;;5027523;28;20289;-47
2024/03/10 08:23:42;;;;;;;0.00;0.00;;;25.70;39.30;;;;;;5027722;28;20674;-47
2024/03/10 08:26:13;;;;;;;0.00;0.00;;;25.70;39.40;;;;;;5026634;28;20311;-47
2024/03/10 08:28:44;;;;;;;0.00;0.00;;;25.60;39.40;;;;;;5027188;28;20330;-47
2024/03/10 08:31:15;;;;;;;0.00;0.00;;;25.60;39.30;;;;;;5027517;28;20243;-47
2024/03/10 08:33:47;;;;;;;0.00;0.00;;;25.60;39.20;;;;;;5027553;28;21029;-48
2024/03/10 08:36:18;;;;;;;0.00;0.00;;;25.60;39.20;;;;;;5027852;28;20235;-49
2024/03/10 08:38:49;;;;;;;0.00;0.00;;;25.60;39.30;;;;;;5027624;28;20636;-49
2024/03/10 08:41:19;;;;;;;0.00;0.00;;;25.50;39.30;;;;;;5026751;28;20259;-50
2024/03/10 08:43:50;;;;;;;0.00;0.00;;;25.50;39.30;;;;;;5027612;28;20204;-52
2024/03/10 08:46:21;;;;;;;0.00;0.00;;;25.50;39.40;;;;;;5027109;28;20236;-51
2024/03/10 08:48:54;;;;;;;0.00;0.00;;;25.50;39.50;;;;;;5028079;28;20207;-53
2024/03/10 08:51:27;;;;;;;0.00;0.00;;;25.50;39.50;;;;;;5031244;28;20219;-51
2024/03/10 08:53:58;;;;;;;0.00;0.00;;;25.50;39.50;;;;;;5032037;28;20234;-49
2024/03/10 08:56:30;;;;;;;0.00;0.00;;;25.50;39.60;;;;;;5031048;28;20210;-46
2024/03/10 08:59:00;;;;;;;0.00;0.00;;;25.40;39.50;;;;;;5031643;28;20207;-48
2024/03/10 09:01:31;;;;;;;0.10;0.10;;;25.40;39.50;;;;;;5032013;28;20713;-49
2024/03/10 09:04:06;;;;;;;0.10;0.10;;;25.40;39.50;;;;;;5031073;28;20208;-48
2024/03/10 09:06:37;;;;;;;0.08;0.08;;;25.40;39.50;;;;;;5031402;28;20207;-50
2024/03/10 09:09:08;;;;;;;0.00;0.00;;;25.40;39.50;;;;;;5031249;28;20200;-50
2024/03/10 09:11:39;;;;;;;0.00;0.00;;;25.40;39.50;;;;;;5031264;28;20311;-49
2024/03/10 09:14:10;;;;;;;0.00;0.00;;;25.30;39.30;;;;;;5031878;28;20235;-50
2024/03/10 09:16:40;;;;;;;0.00;0.00;;;25.30;39.30;;;;;;5031101;28;20207;-48
2024/03/10 09:19:14;;;;;;;0.00;0.00;;;25.30;39.20;;;;;;5031311;28;20218;-49
2024/03/10 09:21:45;;;;;;;0.00;0.00;;;25.30;39.20;;;;;;5030390;28;20220;-50
2024/03/10 09:24:16;;;;;;;0.00;0.00;;;25.30;39.20;;;;;;5031031;28;20262;-48
2024/03/10 09:26:46;;;;;;;0.00;0.00;;;25.30;39.20;;;;;;5030672;28;20203;-47
2024/03/10 09:29:17;;;;;;;0.10;0.10;;;25.30;39.20;;;;;;5031093;28;20277;-46
2024/03/10 09:31:49;;;;;;;0.00;0.00;;;25.20;39.20;;;;;;5030904;28;20560;-47
2024/03/10 09:34:22;;;;;;;0.00;0.00;;;25.20;39.30;;;;;;5031019;28;20699;-50
2024/03/10 09:36:54;;;;;;;0.00;0.00;;;25.20;39.30;;;;;;5030240;28;20196;-49
2024/03/10 09:39:25;;;;;;;0.00;0.00;;;25.20;39.30;;;;;;5030052;28;20239;-49
2024/03/10 09:41:55;;;;;;;0.00;0.00;;;25.10;39.20;;;;;;5029639;28;20382;-49
2024/03/10 09:44:27;;;;;;;0.08;0.08;;;25.20;39.30;;;;;;5029947;28;20562;-46
2024/03/10 09:46:59;;;;;;;0.00;0.00;;;25.10;39.30;;;;;;5030560;28;20200;-48
2024/03/10 09:49:31;;;;;;;0.00;0.00;;;25.10;39.30;;;;;;5030427;28;20253;-49
2024/03/10 09:52:02;;;;;;;0.00;0.00;;;25.10;39.20;;;;;;5028719;28;20224;-49
2024/03/10 09:54:33;;;;;;;0.00;0.00;;;25.10;39.30;;;;;;5029603;28;20223;-48
2024/03/10 09:57:05;;;;;;;0.00;0.00;;;25.10;39.20;;;;;;5030596;28;20196;-48
2024/03/10 09:59:43;;;;;;;0.00;0.00;;;25.10;39.20;;;;;;5029327;28;20192;-48
2024/03/10 10:02:21;;;;;;;0.10;0.10;;;25.00;39.10;;;;;;5030036;28;20270;-47
2024/03/10 10:04:56;;;;;;;0.00;0.00;;;25.00;39.00;;;;;;5030019;28;20200;-48
2024/03/10 10:07:29;;;;;;;0.00;0.00;;;25.00;39.00;;;;;;5030163;28;20214;-48
2024/03/10 10:10:00;;;;;;;0.00;0.00;;;25.00;39.00;;;;;;5029688;28;20203;-47
2024/03/10 10:12:31;;;;;;;0.00;0.00;;;25.00;39.00;;;;;;5029753;28;20267;-46
2024/03/10 10:15:03;;;;;;;0.00;0.00;;;25.00;39.00;;;;;;5029829;28;20231;-47
2024/03/10 10:17:33;;;;;;;0.00;0.00;;;25.00;39.00;;;;;;5029553;28;20204;-48
2024/03/10 10:20:07;;;;;;;0.00;0.00;;;24.90;38.90;;;;;;5030316;28;20235;-49
2024/03/10 10:22:37;;;;;;;0.00;0.00;;;24.90;38.90;;;;;;5029690;28;20200;-47
2024/03/10 10:25:12;;;;;;;0.10;0.10;;;24.90;39.00;;;;;;5029694;28;20208;-46
2024/03/10 10:27:51;;;;;;;0.00;0.00;;;24.90;39.00;;;;;;5030492;28;20199;-47
2024/03/10 10:30:23;;;;;;;0.00;0.00;;;24.90;39.00;;;;;;5029084;28;20200;-49
2024/03/10 10:33:05;;;;;;;0.05;0.05;;;24.90;39.10;;;;;;5030096;28;20218;-46
2024/03/10 10:35:42;;;;;;;0.00;0.00;;;24.90;39.20;;;;;;5029617;28;20306;-49
2024/03/10 10:38:16;;;;;;;0.00;0.00;;;24.80;39.00;;;;;;5030744;28;20211;-46
2024/03/10 10:40:51;;;;;;;0.00;0.00;;;24.90;39.10;;;;;;5029730;28;20255;-49
2024/03/10 10:43:22;;;;;;;0.00;0.00;;;24.80;39.10;;;;;;5029617;28;20200;-49
2024/03/10 10:45:53;;;;;;;0.00;0.00;;;24.80;39.00;;;;;;5009716;28;20207;-50
2024/03/10 10:48:24;;;;;;;0.00;0.00;;;24.80;38.90;;;;;;5009885;28;20661;-46
2024/03/10 10:50:56;;;;;;;0.10;0.10;;;24.80;38.90;;;;;;5009630;28;20224;-46
2024/03/10 10:53:27;;;;;;;0.00;0.00;;;24.70;38.90;;;;;;5009087;28;20232;-47
2024/03/10 10:55:58;;;;;;;0.00;0.00;;;24.70;38.80;;;;;;5026656;28;20211;-48
2024/03/10 10:58:33;;;;;;;0.03;0.03;;;24.70;38.80;;;;;;5029112;28;20491;-47
2024/03/10 11:01:06;;;;;;;0.00;0.00;;;24.70;38.80;;;;;;5032893;28;20294;-46
2024/03/10 11:03:38;;;;;;;0.00;0.00;;;24.70;38.80;;;;;;5033019;28;20200;-46
2024/03/10 11:06:34;;;;;;;0.00;0.00;;;24.70;38.80;;;;;;5032532;28;20205;-46
2024/03/10 11:09:14;;;;;;;0.00;0.00;;;24.70;38.80;;;;;;5032244;28;20197;-47
2024/03/10 11:11:47;;;;;;;0.00;0.00;;;24.70;38.80;;;;;;5032474;28;20220;-47
2024/03/10 11:14:21;;;;;;;0.00;0.00;;;24.60;38.80;;;;;;5032545;28;20314;-48
2024/03/10 11:16:52;;;;;;;0.05;0.05;;;24.60;38.90;;;;;;5032340;28;20647;-46
2024/03/10 11:19:27;;;;;;;0.03;0.03;;;24.60;38.90;;;;;;5032354;28;20538;-46
2024/03/10 11:22:00;;;;;;;0.10;0.10;;;24.50;38.90;;;;;;5032192;28;20592;-47
2024/03/10 11:24:30;;;;;;;0.00;0.00;;;24.60;38.90;;;;;;5031737;28;20189;-51
2024/03/10 11:27:20;;;;;;;0.00;0.00;;;24.50;38.90;;;;;;5032170;28;20207;-46
2024/03/10 11:29:51;;;;;;;0.00;0.00;;;24.50;39.00;;;;;;5032126;28;20275;-46
2024/03/10 11:32:35;;;;;;;0.00;0.00;;;24.60;39.00;;;;;;5031179;28;20219;-45
2024/03/10 11:35:09;;;;;;;0.00;0.00;;;24.50;38.90;;;;;;5029255;28;20238;-47
2024/03/10 11:37:43;;;;;;;0.00;0.00;;;24.50;38.80;;;;;;5031814;28;20204;-47
2024/03/10 11:40:15;;;;;;;0.00;0.00;;;24.50;38.80;;;;;;5029743;28;20188;-46
2024/03/10 11:42:47;;;;;;;0.00;0.00;;;24.50;38.90;;;;;;5029138;28;20199;-48
2024/03/10 11:45:18;;;;;;;0.00;0.00;;;24.50;38.80;;;;;;5031917;28;20196;-46
2024/03/10 11:47:48;;;;;;;0.00;0.00;;;24.40;38.80;;;;;;5032063;28;20660;-48
2024/03/10 11:50:19;;;;;;;0.00;0.00;;;24.50;38.90;;;;;;5032193;28;20188;-45
2024/03/10 11:52:52;;;;;;;0.00;0.00;;;24.40;38.80;;;;;;5031321;28;20196;-47
2024/03/10 11:55:23;;;;;;;0.00;0.00;;;24.40;38.80;;;;;;5032039;28;20235;-45
2024/03/10 11:57:56;;;;;;;0.00;0.00;;;24.40;38.80;;;;;;5031654;28;20657;-48
2024/03/10 12:00:27;;;;;;;0.00;0.00;;;24.40;38.80;;;;;;5030953;28;20192;-45
2024/03/10 12:02:58;;;;;;;0.00;0.00;;;24.40;38.80;;;;;;5031787;28;20200;-46
2024/03/10 12:05:29;;;;;;;0.00;0.00;;;24.40;38.80;;;;;;5031826;28;20287;-48
2024/03/10 12:08:05;;;;;;;0.00;0.00;;;24.30;38.80;;;;;;5031640;28;20196;-47
2024/03/10 12:10:36;;;;;;;0.00;0.00;;;24.30;38.80;;;;;;5031716;28;20266;-46
2024/03/10 12:13:09;;;;;;;0.00;0.00;;;24.30;38.90;;;;;;5032114;28;20200;-45
2024/03/10 12:15:40;;;;;;;0.05;0.05;;;24.30;38.80;;;;;;5031465;28;20615;-46
2024/03/10 12:18:12;;;;;;;0.10;0.10;;;24.30;38.90;;;;;;5031661;28;20673;-48
2024/03/10 12:20:44;;;;;;;0.00;0.00;;;24.30;38.90;;;;;;5032064;28;20757;-46
2024/03/10 12:23:17;;;;;;;0.08;0.08;;;24.30;38.90;;;;;;5031232;28;20262;-45
2024/03/10 12:25:47;;;;;;;0.00;0.00;;;24.30;38.80;;;;;;5031169;28;20200;-48
2024/03/10 12:28:19;;;;;;;0.00;0.00;;;24.30;38.80;;;;;;5030894;28;20193;-45
2024/03/10 12:30:50;;;;;;;0.00;0.00;;;24.30;38.80;;;;;;5031597;28;20224;-45
2024/03/10 12:33:21;;;;;;;0.00;0.00;;;24.20;38.70;;;;;;5032097;28;20231;-46
2024/03/10 12:35:52;;;;;;;0.00;0.00;;;24.20;38.70;;;;;;5031459;28;20230;-46
2024/03/10 12:38:25;;;;;;;0.00;0.00;;;24.20;38.70;;;;;;5031737;28;20283;-47
2024/03/10 12:40:56;;;;;;;0.10;0.10;;;24.20;38.70;;;;;;5031310;28;20721;-46
2024/03/10 12:43:28;;;;;;;0.00;0.00;;;24.20;38.70;;;;;;5031574;28;20562;-49
2024/03/10 12:46:01;;;;;;;0.00;0.00;;;24.20;38.70;;;;;;5031623;28;20695;-46
2024/03/10 12:48:31;;;;;;;0.00;0.00;;;24.20;38.70;;;;;;5031406;28;20218;-47
2024/03/10 12:51:02;;;;;;;0.10;0.10;;;24.10;38.70;;;;;;5030992;28;20220;-51
2024/03/10 12:53:34;;;;;;;0.10;0.10;;;24.10;38.70;;;;;;5031398;28;20644;-48
2024/03/10 12:56:08;;;;;;;0.00;0.00;;;24.10;38.70;;;;;;5031425;28;20239;-47
2024/03/10 12:58:38;;;;;;;0.00;0.00;;;24.10;38.70;;;;;;5031677;28;20204;-51
2024/03/10 13:01:10;;;;;;;0.00;0.00;;;24.10;38.70;;;;;;5031473;28;20274;-49
2024/03/10 13:03:40;;;;;;;0.00;0.00;;;24.10;38.70;;;;;;5031629;28;20651;-47
2024/03/10 13:06:11;;;;;;;0.00;0.00;;;24.10;38.70;;;;;;5031198;28;20250;-47
2024/03/10 13:08:43;;;;;;;0.00;0.00;;;24.00;38.70;;;;;;5030930;28;20203;-49
2024/03/10 13:11:18;;;;;;;0.10;0.10;;;24.00;38.70;;;;;;5031176;28;20274;-48
2024/03/10 13:13:49;;;;;;;0.00;0.00;;;24.00;38.60;;;;;;5031184;28;20208;-48
2024/03/10 13:16:20;;;;;;;0.00;0.00;;;24.00;38.70;;;;;;5031045;28;20274;-49
2024/03/10 13:18:50;;;;;;;0.00;0.00;;;24.00;38.70;;;;;;5031576;28;20193;-48
2024/03/10 13:21:21;;;;;;;0.00;0.00;;;24.00;38.60;;;;;;5031294;28;20216;-47
2024/03/10 13:23:53;;;;;;;0.00;0.00;;;24.00;38.60;;;;;;5031296;28;20200;-48
2024/03/10 13:26:24;;;;;;;0.00;0.00;;;23.90;38.50;;;;;;5031196;28;20196;-47
2024/03/10 13:28:55;;;;;;;0.00;0.00;;;24.00;38.60;;;;;;5031256;28;20196;-46
2024/03/10 13:31:25;;;;;;;0.00;0.00;;;23.90;38.50;;;;;;5031036;28;20228;-46
2024/03/10 13:33:56;;;;;;;0.00;0.00;;;23.90;38.50;;;;;;5031066;28;20193;-46
2024/03/10 13:36:27;;;;;;;0.00;0.00;;;23.90;38.50;;;;;;5034016;28;20286;-49